Time;durP1;ratioP1;P1;durP2;ratioP2;P2;SDS_P1;SDS_P2;PMS_P1;PMS_P2;Temp;Humidity;BMP_temperature;BMP_pressure;BME280_temperature;BME280_humidity;BME280_pressure;Samples;Min_cycle;Max_cycle;Signal;HPM_P1;HPM_P2
2022/07/17 00:00:00;;;;;;;2.42;1.70;;;18.00;54.60;;;;;;5056993;28;20500;-61
2022/07/17 00:02:26;;;;;;;1.98;1.70;;;18.00;55.20;;;;;;5056063;28;20072;-62
2022/07/17 00:04:52;;;;;;;2.10;1.45;;;17.90;54.50;;;;;;5056406;28;20484;-63
2022/07/17 00:07:17;;;;;;;2.05;1.65;;;17.90;54.50;;;;;;5054564;28;20033;-63
2022/07/17 00:09:43;;;;;;;1.85;1.42;;;17.80;54.50;;;;;;5055161;28;20041;-63
2022/07/17 00:12:09;;;;;;;4.85;1.77;;;17.70;54.60;;;;;;5055312;28;20137;-62
2022/07/17 00:14:34;;;;;;;4.22;1.67;;;17.60;54.70;;;;;;5056950;28;20578;-61
2022/07/17 00:17:00;;;;;;;3.72;1.80;;;17.60;55.00;;;;;;5055688;28;20051;-63
2022/07/17 00:19:26;;;;;;;2.85;1.60;;;17.60;55.00;;;;;;5055510;28;20530;-62
2022/07/17 00:21:52;;;;;;;1.70;1.60;;;17.40;55.00;;;;;;5056182;28;20119;-62
2022/07/17 00:24:19;;;;;;;1.98;1.63;;;17.40;55.30;;;;;;5056481;28;20033;-60
2022/07/17 00:26:49;;;;;;;2.20;1.70;;;17.40;55.40;;;;;;5053144;28;20377;-61
2022/07/17 00:29:15;;;;;;;3.03;1.63;;;17.40;55.80;;;;;;5056601;28;20409;-62
2022/07/17 00:31:41;;;;;;;2.50;1.77;;;17.40;55.50;;;;;;5055477;28;20037;-62
2022/07/17 00:34:07;;;;;;;2.78;1.70;;;17.40;55.70;;;;;;5057957;28;20041;-63
2022/07/17 00:36:32;;;;;;;1.63;1.52;;;17.50;55.80;;;;;;5056457;28;20566;-60
2022/07/17 00:38:58;;;;;;;2.50;1.73;;;17.50;55.80;;;;;;5056069;28;20051;-62
2022/07/17 00:41:24;;;;;;;1.95;1.63;;;17.50;55.70;;;;;;5055461;28;20037;-62
2022/07/17 00:43:50;;;;;;;1.75;1.65;;;17.50;55.80;;;;;;5054233;28;20040;-62
2022/07/17 00:46:15;;;;;;;2.20;1.90;;;17.50;55.80;;;;;;5057540;28;20463;-61
2022/07/17 00:48:41;;;;;;;4.07;1.70;;;17.40;55.80;;;;;;5051459;28;20072;-62
2022/07/17 00:51:08;;;;;;;2.85;1.90;;;17.40;55.90;;;;;;5055843;28;20049;-60
2022/07/17 00:53:35;;;;;;;2.60;2.03;;;17.30;56.00;;;;;;5053878;28;20068;-61
2022/07/17 00:56:05;;;;;;;2.05;1.80;;;17.30;56.20;;;;;;5056244;28;20049;-60
2022/07/17 00:58:35;;;;;;;2.95;1.60;;;17.20;56.60;;;;;;5054293;28;20032;-62
2022/07/17 01:01:06;;;;;;;2.03;1.58;;;17.20;56.60;;;;;;5059210;28;20029;-62
2022/07/17 01:03:32;;;;;;;2.17;1.90;;;17.20;56.60;;;;;;5055093;28;20067;-61
2022/07/17 01:05:57;;;;;;;1.63;1.52;;;17.20;56.40;;;;;;5055386;28;20579;-63
2022/07/17 01:08:23;;;;;;;2.20;2.00;;;17.10;56.50;;;;;;5051474;28;21167;-61
2022/07/17 01:10:49;;;;;;;3.15;2.28;;;17.00;56.60;;;;;;5051362;28;20116;-63
2022/07/17 01:13:15;;;;;;;3.35;2.60;;;16.90;56.80;;;;;;5053306;28;20566;-63
2022/07/17 01:15:41;;;;;;;3.20;2.03;;;16.80;57.00;;;;;;5052928;28;20121;-64
2022/07/17 01:18:08;;;;;;;2.72;1.92;;;16.80;57.10;;;;;;5055378;28;20025;-62
2022/07/17 01:20:35;;;;;;;3.92;2.15;;;16.70;57.20;;;;;;5053180;28;20044;-63
2022/07/17 01:23:01;;;;;;;2.92;1.65;;;16.70;57.30;;;;;;5055226;28;20043;-63
2022/07/17 01:25:26;;;;;;;1.95;1.80;;;16.70;57.40;;;;;;5053246;28;20407;-63
2022/07/17 01:27:52;;;;;;;2.03;1.67;;;16.70;57.60;;;;;;5054830;28;20185;-63
2022/07/17 01:30:18;;;;;;;2.85;1.77;;;16.60;57.40;;;;;;5053138;28;20041;-62
2022/07/17 01:32:44;;;;;;;1.80;1.70;;;16.60;57.50;;;;;;5049732;28;20032;-63
2022/07/17 01:35:12;;;;;;;2.15;1.90;;;16.60;57.50;;;;;;5052096;28;20213;-62
2022/07/17 01:37:40;;;;;;;2.75;2.20;;;16.70;57.80;;;;;;5052799;28;20291;-62
2022/07/17 01:40:08;;;;;;;4.68;2.50;;;16.70;57.70;;;;;;5054766;28;20047;-62
2022/07/17 01:42:34;;;;;;;3.55;2.75;;;16.70;57.50;;;;;;5053551;28;20583;-62
2022/07/17 01:45:00;;;;;;;11.32;4.50;;;16.70;57.60;;;;;;5051618;28;20114;-63
2022/07/17 01:47:26;;;;;;;13.60;5.45;;;16.70;57.90;;;;;;5052682;28;20419;-63
2022/07/17 01:49:55;;;;;;;11.15;5.30;;;16.60;57.80;;;;;;5053021;28;20037;-62
2022/07/17 01:52:23;;;;;;;12.20;5.35;;;16.60;58.80;;;;;;5053166;28;20043;-63
2022/07/17 01:54:49;;;;;;;12.18;4.68;;;16.50;58.10;;;;;;5050845;28;20464;-62
2022/07/17 01:57:15;;;;;;;7.00;3.83;;;16.40;58.10;;;;;;5053387;28;20499;-61
2022/07/17 01:59:41;;;;;;;5.82;3.38;;;16.40;58.30;;;;;;5052870;28;20052;-61
2022/07/17 02:02:08;;;;;;;3.60;2.40;;;16.30;58.40;;;;;;5052085;28;20047;-60
2022/07/17 02:04:41;;;;;;;3.22;2.40;;;16.20;58.50;;;;;;5053250;28;20037;-60
2022/07/17 02:07:07;;;;;;;2.85;2.10;;;16.20;58.90;;;;;;5053825;28;20082;-61
2022/07/17 02:09:33;;;;;;;3.70;2.40;;;16.20;58.70;;;;;;5051704;28;20045;-63
2022/07/17 02:11:58;;;;;;;2.28;2.00;;;16.10;58.80;;;;;;5049063;28;20040;-62
2022/07/17 02:14:24;;;;;;;2.38;2.17;;;16.10;58.80;;;;;;5054055;28;20467;-63
2022/07/17 02:16:50;;;;;;;4.85;2.60;;;16.00;58.70;;;;;;5047463;28;20040;-63
2022/07/17 02:19:15;;;;;;;7.32;3.80;;;16.00;58.80;;;;;;5064992;28;20401;-61
2022/07/17 02:21:41;;;;;;;4.57;3.42;;;16.00;59.00;;;;;;5048163;28;20120;-62
2022/07/17 02:24:06;;;;;;;4.53;2.90;;;16.00;59.00;;;;;;5054361;28;20041;-61
2022/07/17 02:26:32;;;;;;;3.85;2.63;;;16.00;59.00;;;;;;5049286;28;20037;-59
2022/07/17 02:28:58;;;;;;;4.15;2.80;;;16.00;59.00;;;;;;5053799;28;20110;-63
2022/07/17 02:31:23;;;;;;;5.50;3.05;;;16.00;59.20;;;;;;5052134;28;20037;-58
2022/07/17 02:33:49;;;;;;;3.55;2.78;;;16.10;59.10;;;;;;5052547;28;20044;-62
2022/07/17 02:36:14;;;;;;;3.67;2.60;;;16.10;59.00;;;;;;5050023;28;20032;-62
2022/07/17 02:38:40;;;;;;;3.75;2.63;;;16.10;59.00;;;;;;5053504;28;20028;-61
2022/07/17 02:41:06;;;;;;;4.30;2.53;;;16.10;59.00;;;;;;5053277;28;20040;-61
2022/07/17 02:43:32;;;;;;;3.67;2.30;;;16.00;59.10;;;;;;5051186;28;20048;-61
2022/07/17 02:45:57;;;;;;;2.55;2.10;;;16.10;59.00;;;;;;5049912;28;20500;-62
2022/07/17 02:48:23;;;;;;;2.55;2.28;;;16.10;59.10;;;;;;5050828;28;20025;-62
2022/07/17 02:50:49;;;;;;;4.22;2.38;;;16.00;59.10;;;;;;5049757;28;20040;-61
2022/07/17 02:53:14;;;;;;;2.58;2.38;;;16.00;59.20;;;;;;5052909;28;20120;-64
2022/07/17 02:55:40;;;;;;;4.20;2.30;;;16.00;59.20;;;;;;5052367;28;20037;-63
2022/07/17 02:58:05;;;;;;;3.55;2.50;;;16.00;59.30;;;;;;5051496;28;20501;-62
2022/07/17 03:00:31;;;;;;;4.55;2.42;;;15.90;59.30;;;;;;5051350;28;20041;-60
2022/07/17 03:02:57;;;;;;;3.22;2.58;;;15.90;59.40;;;;;;5052764;28;20033;-62
2022/07/17 03:05:22;;;;;;;2.70;2.50;;;15.90;59.60;;;;;;5051323;28;20146;-62
2022/07/17 03:07:48;;;;;;;2.40;2.20;;;15.80;59.70;;;;;;5052214;28;20073;-60
2022/07/17 03:10:14;;;;;;;2.50;2.30;;;15.70;59.70;;;;;;5053467;28;20136;-60
2022/07/17 03:12:40;;;;;;;3.83;2.40;;;15.70;59.90;;;;;;5048492;28;20340;-63
2022/07/17 03:15:07;;;;;;;2.63;2.30;;;15.70;60.00;;;;;;5050743;28;20566;-62
2022/07/17 03:17:33;;;;;;;3.22;2.83;;;15.60;60.10;;;;;;5052189;28;20495;-61
2022/07/17 03:19:59;;;;;;;2.90;2.70;;;15.60;60.10;;;;;;5046987;28;20793;-62
2022/07/17 03:22:25;;;;;;;2.58;2.38;;;15.50;60.10;;;;;;5052117;28;20132;-61
2022/07/17 03:24:51;;;;;;;3.08;2.30;;;15.40;60.10;;;;;;5050005;28;20040;-62
2022/07/17 03:27:17;;;;;;;4.68;2.53;;;15.40;60.30;;;;;;5052701;28;20062;-63
2022/07/17 03:29:43;;;;;;;4.53;2.50;;;15.30;60.30;;;;;;5051402;28;20496;-63
2022/07/17 03:32:08;;;;;;;4.13;2.65;;;15.20;60.50;;;;;;5049698;28;20600;-63
2022/07/17 03:34:34;;;;;;;3.20;2.30;;;15.20;60.80;;;;;;5049739;28;21047;-62
2022/07/17 03:36:59;;;;;;;3.10;2.80;;;15.10;61.10;;;;;;5051597;28;20438;-61
2022/07/17 03:39:25;;;;;;;3.05;2.35;;;15.00;61.20;;;;;;5051114;28;20036;-61
2022/07/17 03:41:51;;;;;;;2.67;2.47;;;15.00;61.50;;;;;;5050970;28;20045;-62
2022/07/17 03:44:16;;;;;;;2.97;2.33;;;15.00;61.70;;;;;;5051230;28;20424;-63
2022/07/17 03:46:42;;;;;;;2.75;2.33;;;15.00;62.00;;;;;;5051553;28;20496;-61
2022/07/17 03:49:10;;;;;;;3.63;2.25;;;14.90;62.10;;;;;;5056526;28;20037;-61
2022/07/17 03:51:35;;;;;;;3.70;2.70;;;14.90;62.20;;;;;;5053124;28;20044;-61
2022/07/17 03:54:01;;;;;;;2.70;2.50;;;15.00;62.40;;;;;;5055617;28;20033;-62
2022/07/17 03:56:27;;;;;;;3.00;2.70;;;14.90;62.20;;;;;;5055501;28;20041;-62
2022/07/17 03:58:53;;;;;;;4.22;2.55;;;15.00;62.30;;;;;;5056487;28;20044;-61
2022/07/17 04:01:18;;;;;;;2.72;2.50;;;15.00;62.40;;;;;;5054384;28;20120;-63
2022/07/17 04:03:44;;;;;;;2.70;2.50;;;15.00;62.30;;;;;;5059907;28;20052;-60
2022/07/17 04:06:09;;;;;;;3.42;2.83;;;15.00;62.30;;;;;;5053487;28;20067;-61
2022/07/17 04:08:35;;;;;;;3.30;2.85;;;15.00;62.50;;;;;;5054085;28;20055;-62
2022/07/17 04:11:00;;;;;;;3.15;2.58;;;15.10;62.50;;;;;;5054660;28;20079;-63
2022/07/17 04:13:26;;;;;;;2.70;2.47;;;15.10;62.40;;;;;;5055010;28;20056;-61
2022/07/17 04:15:59;;;;;;;3.38;2.47;;;15.10;62.30;;;;;;5055594;28;20028;-62
2022/07/17 04:18:30;;;;;;;3.25;2.40;;;15.20;62.20;;;;;;5054951;28;20114;-62
2022/07/17 04:20:59;;;;;;;3.40;2.55;;;15.20;62.40;;;;;;5054172;28;20114;-61
2022/07/17 04:23:24;;;;;;;2.55;2.30;;;15.20;62.00;;;;;;5053956;28;20036;-61
2022/07/17 04:25:50;;;;;;;2.60;2.40;;;15.30;61.90;;;;;;5056231;28;20043;-63
2022/07/17 04:28:16;;;;;;;4.10;2.50;;;15.40;61.80;;;;;;5054912;28;20032;-61
2022/07/17 04:30:42;;;;;;;2.70;2.45;;;15.40;61.60;;;;;;5054650;28;20446;-62
2022/07/17 04:33:08;;;;;;;6.00;2.70;;;15.50;61.50;;;;;;5055722;28;20037;-60
2022/07/17 04:35:34;;;;;;;3.95;2.83;;;15.50;61.30;;;;;;5053687;28;20029;-61
2022/07/17 04:38:00;;;;;;;2.80;2.45;;;15.60;61.30;;;;;;5054164;28;20051;-63
2022/07/17 04:40:26;;;;;;;2.80;2.50;;;15.60;61.30;;;;;;5052631;28;20514;-63
2022/07/17 04:42:52;;;;;;;4.15;2.65;;;15.50;61.20;;;;;;5053874;28;20454;-63
2022/07/17 04:45:17;;;;;;;6.72;3.03;;;15.50;61.30;;;;;;5054835;28;20516;-63
2022/07/17 04:47:43;;;;;;;3.30;3.00;;;15.50;61.40;;;;;;5055920;28;20037;-63
2022/07/17 04:50:09;;;;;;;3.38;3.08;;;15.40;61.50;;;;;;5051877;28;20124;-63
2022/07/17 04:52:35;;;;;;;4.72;3.13;;;15.40;61.90;;;;;;5050549;28;20032;-64
2022/07/17 04:55:00;;;;;;;3.22;2.92;;;15.30;62.00;;;;;;5053034;28;20097;-63
2022/07/17 04:57:26;;;;;;;3.10;2.80;;;15.30;62.30;;;;;;5054342;28;20044;-63
2022/07/17 04:59:52;;;;;;;3.55;3.25;;;15.20;62.40;;;;;;5051803;28;20033;-61
2022/07/17 05:02:18;;;;;;;3.30;3.00;;;15.20;62.60;;;;;;5053670;28;20037;-63
2022/07/17 05:04:43;;;;;;;3.47;3.13;;;15.20;62.80;;;;;;5054720;28;20048;-62
2022/07/17 05:07:09;;;;;;;3.40;3.08;;;15.20;63.30;;;;;;5052201;28;20044;-62
2022/07/17 05:09:35;;;;;;;4.10;3.20;;;15.20;63.40;;;;;;5054251;28;20037;-63
2022/07/17 05:12:01;;;;;;;3.65;3.35;;;15.30;63.60;;;;;;5052431;28;20094;-61
2022/07/17 05:14:26;;;;;;;3.42;3.13;;;15.40;63.70;;;;;;5054812;28;20033;-62
2022/07/17 05:16:52;;;;;;;4.18;3.25;;;15.40;63.80;;;;;;5055246;28;20059;-63
2022/07/17 05:19:17;;;;;;;4.22;3.78;;;15.50;63.60;;;;;;5054550;28;20053;-62
2022/07/17 05:21:43;;;;;;;3.72;3.42;;;15.50;63.60;;;;;;5051560;28;20124;-62
2022/07/17 05:24:09;;;;;;;4.43;3.33;;;15.70;63.60;;;;;;5054452;28;20370;-62
2022/07/17 05:26:34;;;;;;;4.05;3.65;;;15.80;63.80;;;;;;5052076;28;20057;-62
2022/07/17 05:29:00;;;;;;;4.38;3.70;;;15.90;63.80;;;;;;5055148;28;20033;-62
2022/07/17 05:31:25;;;;;;;4.25;3.58;;;16.00;63.40;;;;;;5053165;28;20113;-61
2022/07/17 05:33:51;;;;;;;4.82;3.85;;;16.10;63.10;;;;;;5056380;28;20028;-61
2022/07/17 05:36:17;;;;;;;4.05;3.47;;;16.20;62.70;;;;;;5054505;28;20517;-60
2022/07/17 05:38:42;;;;;;;5.88;3.40;;;16.40;62.90;;;;;;5053647;28;20025;-62
2022/07/17 05:41:08;;;;;;;3.90;3.58;;;16.50;62.50;;;;;;5054205;28;20542;-62
2022/07/17 05:43:33;;;;;;;4.18;3.80;;;16.60;62.20;;;;;;5052741;28;20037;-62
2022/07/17 05:45:59;;;;;;;3.50;3.20;;;16.70;61.60;;;;;;5056309;28;20056;-62
2022/07/17 05:48:26;;;;;;;3.47;3.17;;;16.80;61.30;;;;;;5050979;28;20032;-63
2022/07/17 05:50:52;;;;;;;3.83;3.22;;;16.90;61.00;;;;;;5058226;28;20119;-63
2022/07/17 05:53:18;;;;;;;4.57;3.65;;;17.00;60.70;;;;;;5051620;28;20079;-63
2022/07/17 05:55:44;;;;;;;5.97;3.58;;;17.10;60.60;;;;;;5054617;28;20698;-62
2022/07/17 05:58:10;;;;;;;5.60;3.33;;;17.20;60.30;;;;;;5053291;28;20420;-63
2022/07/17 06:00:36;;;;;;;4.05;3.47;;;17.30;60.00;;;;;;5053884;28;20041;-62
2022/07/17 06:03:02;;;;;;;4.20;3.33;;;17.40;59.90;;;;;;5052581;28;20024;-62
2022/07/17 06:05:28;;;;;;;3.28;2.97;;;17.50;59.80;;;;;;5055037;28;20450;-60
2022/07/17 06:07:54;;;;;;;5.63;3.38;;;17.60;59.60;;;;;;5053319;28;20040;-62
2022/07/17 06:10:21;;;;;;;4.50;3.30;;;17.60;59.30;;;;;;5053725;28;20412;-62
2022/07/17 06:12:47;;;;;;;4.90;3.33;;;17.70;59.20;;;;;;5050285;28;20041;-63
2022/07/17 06:15:12;;;;;;;4.20;3.03;;;17.80;58.90;;;;;;5053424;28;20032;-62
2022/07/17 06:17:38;;;;;;;3.25;2.95;;;17.80;58.70;;;;;;5053225;28;20025;-61
2022/07/17 06:20:05;;;;;;;4.13;3.70;;;17.90;58.50;;;;;;5054955;28;20060;-61
2022/07/17 06:22:30;;;;;;;5.15;3.15;;;18.00;58.50;;;;;;5054381;28;20052;-61
2022/07/17 06:24:56;;;;;;;3.60;3.30;;;18.00;58.30;;;;;;5051305;28;20478;-60
2022/07/17 06:27:22;;;;;;;3.35;3.05;;;18.10;58.20;;;;;;5052227;28;20106;-63
2022/07/17 06:29:48;;;;;;;3.85;3.55;;;18.10;58.20;;;;;;5050466;28;20072;-62
2022/07/17 06:32:14;;;;;;;6.63;3.35;;;18.20;57.90;;;;;;5054633;28;20120;-60
2022/07/17 06:34:39;;;;;;;3.67;3.22;;;18.20;57.90;;;;;;5055106;28;20113;-62
2022/07/17 06:37:05;;;;;;;4.65;3.60;;;18.30;57.80;;;;;;5056128;28;20044;-63
2022/07/17 06:39:31;;;;;;;3.80;3.50;;;18.40;57.90;;;;;;5051785;28;20041;-63
2022/07/17 06:41:57;;;;;;;3.75;3.35;;;18.50;58.80;;;;;;5052403;28;20041;-63
2022/07/17 06:44:22;;;;;;;3.55;3.20;;;18.50;57.80;;;;;;5051659;28;20127;-62
2022/07/17 06:46:48;;;;;;;6.20;3.42;;;18.60;57.70;;;;;;5052886;28;20193;-61
2022/07/17 06:49:14;;;;;;;3.55;3.05;;;18.70;57.90;;;;;;5051673;28;20514;-62
2022/07/17 06:51:40;;;;;;;4.05;3.20;;;18.70;57.90;;;;;;5052129;28;20500;-62
2022/07/17 06:54:05;;;;;;;3.13;2.92;;;18.80;57.80;;;;;;5052947;28;20029;-62
2022/07/17 06:56:31;;;;;;;5.45;3.58;;;18.90;57.60;;;;;;5052098;28;20033;-63
2022/07/17 06:58:57;;;;;;;4.13;3.72;;;19.00;57.30;;;;;;5053301;28;20554;-63
2022/07/17 07:01:22;;;;;;;4.10;2.90;;;19.10;56.90;;;;;;5052447;28;20555;-61
2022/07/17 07:03:48;;;;;;;3.95;3.15;;;19.20;56.90;;;;;;5053747;28;20529;-63
2022/07/17 07:06:14;;;;;;;5.05;3.25;;;19.20;56.90;;;;;;5052590;28;20032;-63
2022/07/17 07:08:39;;;;;;;4.47;2.88;;;19.30;57.00;;;;;;5055181;28;20087;-62
2022/07/17 07:11:06;;;;;;;3.10;2.80;;;19.40;57.00;;;;;;5052963;28;20056;-61
2022/07/17 07:13:32;;;;;;;3.42;3.00;;;19.50;57.10;;;;;;5052794;28;20566;-62
2022/07/17 07:15:57;;;;;;;2.85;2.65;;;19.60;56.80;;;;;;5055008;28;20029;-62
2022/07/17 07:18:23;;;;;;;5.45;2.92;;;19.70;57.10;;;;;;5057289;28;20036;-62
2022/07/17 07:20:49;;;;;;;3.70;2.70;;;19.80;56.50;;;;;;5053747;28;20036;-58
2022/07/17 07:23:14;;;;;;;3.22;2.60;;;19.90;56.50;;;;;;5057685;28;20102;-63
2022/07/17 07:25:40;;;;;;;3.55;2.70;;;20.00;56.20;;;;;;5056267;28;20037;-62
2022/07/17 07:28:06;;;;;;;2.30;2.10;;;20.10;55.70;;;;;;5058732;28;20036;-63
2022/07/17 07:30:32;;;;;;;3.30;2.40;;;20.20;55.40;;;;;;5055029;28;20036;-62
2022/07/17 07:32:57;;;;;;;2.38;2.17;;;20.40;55.40;;;;;;5058021;28;20412;-62
2022/07/17 07:35:23;;;;;;;2.65;2.20;;;20.50;55.10;;;;;;5058841;28;20056;-61
2022/07/17 07:37:49;;;;;;;3.72;1.92;;;20.60;54.60;;;;;;5054843;28;20625;-61
2022/07/17 07:40:15;;;;;;;2.42;2.22;;;20.70;54.60;;;;;;5056057;28;20033;-60
2022/07/17 07:42:40;;;;;;;3.85;2.13;;;20.90;54.30;;;;;;5055415;28;20093;-61
2022/07/17 07:45:07;;;;;;;2.13;1.92;;;21.00;54.20;;;;;;5058003;28;20043;-62
2022/07/17 07:47:39;;;;;;;2.38;1.92;;;21.20;53.90;;;;;;5058155;28;20102;-63
2022/07/17 07:50:05;;;;;;;4.53;2.20;;;21.30;53.80;;;;;;5056171;28;20551;-62
2022/07/17 07:52:31;;;;;;;3.40;2.03;;;21.50;53.50;;;;;;5055557;28;20515;-62
2022/07/17 07:54:57;;;;;;;3.35;1.88;;;21.60;53.20;;;;;;5058111;28;20033;-62
2022/07/17 07:57:22;;;;;;;4.60;2.00;;;21.70;53.10;;;;;;5055476;28;20112;-62
2022/07/17 07:59:48;;;;;;;3.15;2.00;;;21.80;53.10;;;;;;5058015;28;20123;-63
2022/07/17 08:02:13;;;;;;;3.50;2.15;;;21.90;53.30;;;;;;5055780;28;20064;-62
2022/07/17 08:04:39;;;;;;;2.13;1.92;;;22.00;52.70;;;;;;5055004;28;20369;-63
2022/07/17 08:07:04;;;;;;;2.35;2.15;;;22.10;51.90;;;;;;5056076;28;20040;-63
2022/07/17 08:09:30;;;;;;;2.08;1.65;;;22.20;51.40;;;;;;5056325;28;20037;-63
2022/07/17 08:11:56;;;;;;;2.00;1.80;;;22.30;51.30;;;;;;5052268;28;20033;-63
2022/07/17 08:14:21;;;;;;;2.40;1.75;;;22.40;51.10;;;;;;5055311;28;20028;-62
2022/07/17 08:16:47;;;;;;;2.10;1.90;;;22.50;50.50;;;;;;5055001;28;20037;-62
2022/07/17 08:19:13;;;;;;;2.00;1.80;;;22.60;50.70;;;;;;5057527;28;20393;-62
2022/07/17 08:21:38;;;;;;;1.90;1.80;;;22.70;50.40;;;;;;5054874;28;20033;-62
2022/07/17 08:24:04;;;;;;;2.90;2.00;;;22.90;50.10;;;;;;5056066;28;20063;-62
2022/07/17 08:26:30;;;;;;;2.17;1.70;;;22.90;49.90;;;;;;5055690;28;20727;-62
2022/07/17 08:28:55;;;;;;;1.80;1.70;;;23.10;49.50;;;;;;5054252;28;20045;-64
2022/07/17 08:31:21;;;;;;;4.28;1.88;;;23.20;49.70;;;;;;5056677;28;20115;-62
2022/07/17 08:33:47;;;;;;;3.35;1.60;;;23.30;49.60;;;;;;5053081;28;20029;-61
2022/07/17 08:36:12;;;;;;;4.88;1.60;;;23.50;49.40;;;;;;5057740;28;20036;-62
2022/07/17 08:38:38;;;;;;;4.70;1.75;;;23.60;48.90;;;;;;5055547;28;20033;-62
2022/07/17 08:41:04;;;;;;;1.60;1.50;;;23.70;48.30;;;;;;5056994;28;20568;-62
2022/07/17 08:43:30;;;;;;;2.30;1.70;;;23.90;48.00;;;;;;5055775;28;20047;-63
2022/07/17 08:45:57;;;;;;;2.42;1.80;;;24.00;47.00;;;;;;5054998;28;20330;-62
2022/07/17 08:48:26;;;;;;;1.73;1.50;;;24.10;47.20;;;;;;5057061;28;20496;-61
2022/07/17 08:50:52;;;;;;;3.13;1.55;;;24.20;46.60;;;;;;5056901;28;20792;-61
2022/07/17 08:53:17;;;;;;;2.28;1.70;;;24.30;46.30;;;;;;5057210;28;20033;-62
2022/07/17 08:55:43;;;;;;;2.60;1.67;;;24.40;46.40;;;;;;5055115;28;20036;-61
2022/07/17 08:58:15;;;;;;;1.50;1.40;;;24.50;46.00;;;;;;5055641;28;20036;-62
2022/07/17 09:00:40;;;;;;;1.98;1.40;;;24.60;46.00;;;;;;5051681;28;20037;-60
2022/07/17 09:03:07;;;;;;;1.58;1.48;;;24.70;45.90;;;;;;5057577;28;20031;-62
2022/07/17 09:05:35;;;;;;;2.88;1.60;;;24.90;45.50;;;;;;5056163;28;20119;-62
2022/07/17 09:08:02;;;;;;;2.20;1.45;;;25.00;45.10;;;;;;5058988;28;20024;-62
2022/07/17 09:10:33;;;;;;;1.67;1.30;;;25.10;45.00;;;;;;5055705;28;20029;-62
2022/07/17 09:13:00;;;;;;;2.13;1.25;;;25.30;44.50;;;;;;5058961;28;20511;-62
2022/07/17 09:15:27;;;;;;;2.17;1.42;;;25.40;43.90;;;;;;5057286;28;20516;-62
2022/07/17 09:17:54;;;;;;;2.28;1.33;;;25.50;43.30;;;;;;5059151;28;20425;-61
2022/07/17 09:20:21;;;;;;;1.50;1.35;;;25.60;41.50;;;;;;5054946;28;20094;-63
2022/07/17 09:23:00;;;;;;;2.38;1.60;;;25.60;42.30;;;;;;5053778;28;20045;-61
2022/07/17 09:25:41;;;;;;;1.55;1.30;;;25.70;41.30;;;;;;5053234;28;20033;-62
2022/07/17 09:28:08;;;;;;;2.40;1.42;;;25.70;41.70;;;;;;5054159;28;20711;-62
2022/07/17 09:30:41;;;;;;;3.13;1.38;;;25.90;42.50;;;;;;5051584;28;20040;-62
2022/07/17 09:33:15;;;;;;;4.18;1.27;;;26.00;42.10;;;;;;5052358;28;20123;-62
2022/07/17 09:35:49;;;;;;;2.35;1.30;;;26.10;42.20;;;;;;5053243;28;20528;-63
2022/07/17 09:38:30;;;;;;;1.42;1.27;;;26.20;41.70;;;;;;5055197;28;20041;-60
2022/07/17 09:41:15;;;;;;;2.83;1.40;;;26.30;40.90;;;;;;5051893;28;20535;-60
2022/07/17 09:43:57;;;;;;;1.45;1.30;;;26.40;40.80;;;;;;5051608;28;20040;-62
2022/07/17 09:46:28;;;;;;;0.98;0.90;;;26.50;40.90;;;;;;5052428;28;20052;-63
2022/07/17 09:48:55;;;;;;;1.60;1.25;;;26.60;40.70;;;;;;5053147;28;20037;-62
2022/07/17 09:51:25;;;;;;;1.77;1.30;;;26.70;40.90;;;;;;5050660;28;20508;-62
2022/07/17 09:53:54;;;;;;;3.15;1.10;;;26.80;40.50;;;;;;5053479;28;20029;-63
2022/07/17 09:56:21;;;;;;;3.55;1.25;;;26.90;39.90;;;;;;5054717;28;20563;-63
2022/07/17 09:59:00;;;;;;;1.20;1.10;;;27.00;40.10;;;;;;5054260;28;20082;-60
2022/07/17 10:01:26;;;;;;;1.38;1.20;;;27.10;39.50;;;;;;5054249;28;20520;-61
2022/07/17 10:03:53;;;;;;;5.47;1.30;;;27.20;40.10;;;;;;5053280;28;20646;-62
2022/07/17 10:06:20;;;;;;;1.20;1.10;;;27.20;39.50;;;;;;5055573;28;20108;-63
2022/07/17 10:08:46;;;;;;;1.73;1.13;;;27.30;39.40;;;;;;5054104;28;20042;-63
2022/07/17 10:11:15;;;;;;;1.25;1.10;;;27.40;38.90;;;;;;5053708;28;20487;-63
2022/07/17 10:13:44;;;;;;;2.30;1.30;;;27.50;38.70;;;;;;5052729;28;20024;-63
2022/07/17 10:16:10;;;;;;;1.30;1.20;;;27.50;38.80;;;;;;5054955;28;20032;-62
2022/07/17 10:18:41;;;;;;;3.53;1.02;;;27.60;38.70;;;;;;5051115;28;20035;-60
2022/07/17 10:21:09;;;;;;;1.33;1.23;;;27.70;38.50;;;;;;5054731;28;20030;-63
2022/07/17 10:23:35;;;;;;;2.75;1.30;;;27.80;38.20;;;;;;5052064;28;20119;-62
2022/07/17 10:26:01;;;;;;;1.00;0.98;;;27.80;38.00;;;;;;5054742;28;20926;-61
2022/07/17 10:28:42;;;;;;;1.63;1.10;;;27.90;38.00;;;;;;5052193;28;20041;-63
2022/07/17 10:31:08;;;;;;;1.45;1.35;;;28.00;37.30;;;;;;5055343;28;20048;-60
2022/07/17 10:33:34;;;;;;;4.32;1.30;;;28.00;37.30;;;;;;5053185;28;20033;-61
2022/07/17 10:36:00;;;;;;;3.90;1.13;;;28.10;37.70;;;;;;5055769;28;20590;-63
2022/07/17 10:38:27;;;;;;;1.50;1.30;;;28.10;37.60;;;;;;5053249;28;20043;-63
2022/07/17 10:41:03;;;;;;;1.60;1.23;;;28.20;37.50;;;;;;5054511;28;20499;-62
2022/07/17 10:43:43;;;;;;;2.40;1.10;;;28.20;36.50;;;;;;5054932;28;20060;-61
2022/07/17 10:46:09;;;;;;;1.60;1.20;;;28.30;36.50;;;;;;5053808;28;20446;-63
2022/07/17 10:48:35;;;;;;;1.60;1.10;;;28.40;35.90;;;;;;5052242;28;20037;-62
2022/07/17 10:51:00;;;;;;;1.63;1.10;;;28.40;36.00;;;;;;5053175;28;20530;-63
2022/07/17 10:53:33;;;;;;;1.55;1.00;;;28.50;36.00;;;;;;5051577;28;20036;-62
2022/07/17 10:56:05;;;;;;;2.33;1.00;;;28.50;36.20;;;;;;5050954;28;20029;-63
2022/07/17 10:58:39;;;;;;;1.83;1.15;;;28.50;35.10;;;;;;5050268;28;20044;-63
2022/07/17 11:01:19;;;;;;;1.75;1.20;;;28.50;35.80;;;;;;5051221;28;20041;-60
2022/07/17 11:03:50;;;;;;;37.38;2.45;;;28.50;34.50;;;;;;5051833;28;20040;-61
2022/07/17 11:06:20;;;;;;;1.10;1.00;;;28.50;35.20;;;;;;5052628;28;20516;-62
2022/07/17 11:08:52;;;;;;;4.93;1.02;;;28.40;35.10;;;;;;5054100;28;20115;-64
2022/07/17 11:11:20;;;;;;;2.05;1.35;;;28.40;35.70;;;;;;5051732;28;20114;-62
2022/07/17 11:13:46;;;;;;;2.45;1.38;;;28.50;35.30;;;;;;5056153;28;20031;-62
2022/07/17 11:16:22;;;;;;;1.13;1.00;;;28.50;35.40;;;;;;5054523;28;20714;-63
2022/07/17 11:18:48;;;;;;;2.15;1.20;;;28.50;35.50;;;;;;5054558;28;20496;-61
2022/07/17 11:21:14;;;;;;;1.70;1.20;;;28.60;35.30;;;;;;5056183;28;20025;-61
2022/07/17 11:23:54;;;;;;;2.17;1.20;;;28.60;35.30;;;;;;5052467;28;20041;-63
2022/07/17 11:26:20;;;;;;;2.17;1.10;;;28.60;34.50;;;;;;5051436;28;20508;-64
2022/07/17 11:28:47;;;;;;;2.08;1.05;;;28.60;34.90;;;;;;5053180;28;20129;-60
2022/07/17 11:31:20;;;;;;;1.20;1.10;;;28.70;35.00;;;;;;5053530;28;20033;-63
2022/07/17 11:34:01;;;;;;;1.20;1.10;;;28.70;34.30;;;;;;5052126;28;20052;-61
2022/07/17 11:36:41;;;;;;;2.35;1.00;;;28.70;34.80;;;;;;5052262;28;20459;-63
2022/07/17 11:39:18;;;;;;;1.60;1.23;;;28.70;34.50;;;;;;5055244;28;20087;-63
2022/07/17 11:41:46;;;;;;;1.17;1.10;;;28.70;33.60;;;;;;5052466;28;20040;-64
2022/07/17 11:44:17;;;;;;;1.30;1.02;;;28.70;34.50;;;;;;5052683;28;20033;-63
2022/07/17 11:46:46;;;;;;;1.17;1.08;;;28.70;34.50;;;;;;5051072;28;20048;-63
2022/07/17 11:49:25;;;;;;;1.60;1.10;;;28.80;33.90;;;;;;5054145;28;20044;-63
2022/07/17 11:51:51;;;;;;;1.08;0.90;;;28.80;33.30;;;;;;5048534;28;20040;-64
2022/07/17 11:54:17;;;;;;;1.17;1.10;;;28.80;34.40;;;;;;5055331;28;20025;-63
2022/07/17 11:56:51;;;;;;;2.85;1.30;;;28.90;33.50;;;;;;5049674;28;20124;-63
2022/07/17 11:59:30;;;;;;;1.20;1.10;;;28.90;33.60;;;;;;5052585;28;20044;-63
2022/07/17 12:02:05;;;;;;;1.42;0.90;;;28.90;33.10;;;;;;5051205;28;20092;-64
2022/07/17 12:04:31;;;;;;;1.67;1.10;;;28.90;33.40;;;;;;5050462;28;20531;-63
2022/07/17 12:07:02;;;;;;;1.42;1.10;;;28.90;33.50;;;;;;5053763;28;20044;-63
2022/07/17 12:09:33;;;;;;;1.60;1.08;;;28.90;33.60;;;;;;5057598;28;20041;-61
2022/07/17 12:12:00;;;;;;;3.35;1.20;;;29.00;33.60;;;;;;5054512;28;20258;-63
2022/07/17 12:14:25;;;;;;;1.85;1.10;;;29.00;34.80;;;;;;5054526;28;20035;-62
2022/07/17 12:16:51;;;;;;;1.27;1.15;;;29.00;33.50;;;;;;5057703;28;20111;-64
2022/07/17 12:19:22;;;;;;;1.35;1.20;;;29.10;33.20;;;;;;5058315;28;20075;-62
2022/07/17 12:21:49;;;;;;;1.13;1.13;;;29.10;33.40;;;;;;5058736;28;20482;-60
2022/07/17 12:24:21;;;;;;;0.95;0.90;;;29.10;33.20;;;;;;5058288;28;20655;-62
2022/07/17 12:26:46;;;;;;;1.63;1.08;;;29.10;33.00;;;;;;5055905;28;20033;-63
2022/07/17 12:29:12;;;;;;;1.67;1.05;;;29.20;32.20;;;;;;5058614;28;20048;-60
2022/07/17 12:31:38;;;;;;;1.08;0.98;;;29.10;32.40;;;;;;5056619;28;20059;-61
2022/07/17 12:34:03;;;;;;;3.58;1.15;;;29.10;32.50;;;;;;5057534;28;20068;-60
2022/07/17 12:36:29;;;;;;;1.17;0.80;;;29.10;32.10;;;;;;5056942;28;20119;-65
2022/07/17 12:38:55;;;;;;;1.00;1.00;;;29.20;32.20;;;;;;5054529;28;20047;-62
2022/07/17 12:41:21;;;;;;;1.92;0.98;;;29.20;31.90;;;;;;5059253;28;20036;-61
2022/07/17 12:43:46;;;;;;;1.02;0.90;;;29.30;31.70;;;;;;5056955;28;20033;-63